createdAt,value
2022-11-18T00:01:16.896Z,7.43
2022-11-18T00:03:44.808Z,6.43
2022-11-18T00:06:14.986Z,5.50
2022-11-18T00:08:42.576Z,7.40
2022-11-18T00:11:37.945Z,5.70
2022-11-18T00:14:22.428Z,5.07
2022-11-18T00:16:53.496Z,7.40
2022-11-18T00:19:22.431Z,6.22
2022-11-18T00:21:50.045Z,6.65
2022-11-18T00:24:16.917Z,6.40
2022-11-18T00:26:43.788Z,6.18
2022-11-18T00:29:11.197Z,6.30
2022-11-18T00:31:38.882Z,7.45
2022-11-18T00:34:06.608Z,6.50
2022-11-18T00:36:33.293Z,7.47
2022-11-18T00:38:59.962Z,6.85
2022-11-18T00:41:46.515Z,6.00
2022-11-18T00:44:13.853Z,7.97
2022-11-18T00:46:40.837Z,5.65
2022-11-18T00:49:07.786Z,7.55
2022-11-18T00:51:35.761Z,6.85
2022-11-18T00:54:03.171Z,5.65
2022-11-18T00:56:30.058Z,5.53
2022-11-18T00:58:56.956Z,6.18
2022-11-18T01:01:23.956Z,9.82
2022-11-18T01:03:50.708Z,5.97
2022-11-18T01:06:17.885Z,6.45
2022-11-18T01:08:44.603Z,6.05
2022-11-18T01:11:29.792Z,5.88
2022-11-18T01:13:56.504Z,7.50
2022-11-18T01:16:25.988Z,4.55
2022-11-18T01:18:53.048Z,4.82
2022-11-18T01:21:21.353Z,5.80
2022-11-18T01:23:48.641Z,6.00
2022-11-18T01:26:18.148Z,7.60
2022-11-18T01:28:45.377Z,7.88
2022-11-18T01:31:17.790Z,7.25
2022-11-18T01:33:45.612Z,8.15
2022-11-18T01:36:27.578Z,6.85
2022-11-18T01:38:55.398Z,6.55
2022-11-18T01:41:25.877Z,6.72
2022-11-18T01:44:03.012Z,6.00
2022-11-18T01:46:33.715Z,6.18
2022-11-18T01:49:08.138Z,6.05
2022-11-18T01:51:39.236Z,6.55
2022-11-18T01:54:12.147Z,5.82
2022-11-18T01:56:45.457Z,7.35
2022-11-18T01:59:15.434Z,7.03
2022-11-18T02:01:42.575Z,6.30
2022-11-18T02:04:10.073Z,8.07
2022-11-18T02:06:37.039Z,5.38
2022-11-18T02:09:05.635Z,5.82
2022-11-18T02:11:51.647Z,7.00
2022-11-18T02:14:35.233Z,6.32
2022-11-18T02:19:46.829Z,5.90
2022-11-18T02:22:23.062Z,6.10
2022-11-18T02:25:11.646Z,6.65
2022-11-18T02:27:53.573Z,6.22
2022-11-18T02:30:20.391Z,5.22
2022-11-18T02:33:11.556Z,6.38
2022-11-18T02:35:56.687Z,7.30
2022-11-18T02:38:37.626Z,5.90
2022-11-18T02:41:12.962Z,5.07
2022-11-18T02:44:10.213Z,6.35
2022-11-18T02:46:40.231Z,7.13
2022-11-18T02:49:13.323Z,8.32
2022-11-18T02:51:42.919Z,6.90
2022-11-18T02:54:12.210Z,6.43
2022-11-18T02:56:39.318Z,7.10
2022-11-18T02:59:06.106Z,6.88
2022-11-18T03:01:35.521Z,7.50
2022-11-18T03:04:02.751Z,6.60
2022-11-18T03:06:43.609Z,6.68
2022-11-18T03:09:32.051Z,6.43
2022-11-18T03:12:28.597Z,8.60
2022-11-18T03:15:07.281Z,7.18
2022-11-18T03:18:05.079Z,7.25
2022-11-18T03:20:42.342Z,5.97
2022-11-18T03:23:20.059Z,6.70
2022-11-18T03:25:59.002Z,8.15
2022-11-18T03:28:40.021Z,6.13
2022-11-18T03:31:10.350Z,6.10
2022-11-18T03:33:42.967Z,7.10
2022-11-18T03:36:12.588Z,6.95
2022-11-18T03:38:50.946Z,6.75
2022-11-18T03:41:19.705Z,6.63
2022-11-18T03:43:51.438Z,7.38
2022-11-18T03:46:32.672Z,6.75
2022-11-18T03:48:59.718Z,8.65
2022-11-18T03:51:34.085Z,7.43
2022-11-18T03:54:11.760Z,7.95
2022-11-18T03:56:46.197Z,7.30
2022-11-18T03:59:28.238Z,7.38
2022-11-18T04:02:23.092Z,8.10
2022-11-18T04:04:52.485Z,8.32
2022-11-18T04:07:30.967Z,7.05
2022-11-18T04:10:20.495Z,8.25
2022-11-18T04:13:05.823Z,8.07
2022-11-18T04:15:33.349Z,8.23
2022-11-18T04:18:00.014Z,8.38
2022-11-18T04:20:28.422Z,8.20
2022-11-18T04:22:55.418Z,8.13
2022-11-18T04:25:22.177Z,8.90
2022-11-18T04:27:48.878Z,7.75
2022-11-18T04:30:15.581Z,6.80
2022-11-18T04:32:42.446Z,8.10
2022-11-18T04:35:09.384Z,8.20
2022-11-18T04:37:36.262Z,7.68
2022-11-18T04:40:03.962Z,5.82
2022-11-18T04:42:31.146Z,8.30
2022-11-18T04:44:58.104Z,6.10
2022-11-18T04:47:25.132Z,8.80
2022-11-18T04:49:51.785Z,8.15
2022-11-18T04:52:18.614Z,8.35
2022-11-18T04:54:45.359Z,8.23
2022-11-18T04:57:12.198Z,7.20
2022-11-18T04:59:39.030Z,7.05
2022-11-18T05:02:06.169Z,7.82
2022-11-18T05:04:34.790Z,7.85
2022-11-18T05:07:03.404Z,8.27
2022-11-18T05:09:32.105Z,9.57
2022-11-18T05:12:18.350Z,7.10
2022-11-18T05:14:50.142Z,8.05
2022-11-18T05:17:17.486Z,10.47
2022-11-18T05:19:44.145Z,6.60
2022-11-18T05:22:10.974Z,8.27
2022-11-18T05:24:37.813Z,7.82
2022-11-18T05:27:04.613Z,7.35
2022-11-18T05:29:31.327Z,8.27
2022-11-18T05:31:58.102Z,7.82
2022-11-18T05:34:25.150Z,7.20
2022-11-18T05:36:51.862Z,7.65
2022-11-18T05:39:19.030Z,7.90
2022-11-18T05:42:04.291Z,8.88
2022-11-18T05:44:31.017Z,10.13
2022-11-18T05:46:57.749Z,8.85
2022-11-18T05:49:24.408Z,8.75
2022-11-18T05:51:51.217Z,7.78
2022-11-18T05:54:19.817Z,8.98
2022-11-18T05:56:46.759Z,8.48
2022-11-18T05:59:17.168Z,10.35
2022-11-18T06:01:59.845Z,9.10
2022-11-18T06:04:34.793Z,9.40
2022-11-18T06:07:17.325Z,8.35
2022-11-18T06:09:47.739Z,8.70
2022-11-18T06:12:18.639Z,9.27
2022-11-18T06:14:50.208Z,7.30
2022-11-18T06:17:22.258Z,7.72
2022-11-18T06:19:49.186Z,8.02
2022-11-18T06:22:16.306Z,8.20
2022-11-18T06:24:43.999Z,8.95
2022-11-18T06:27:11.539Z,8.95
2022-11-18T06:29:38.397Z,8.70
2022-11-18T06:32:05.265Z,7.47
2022-11-18T06:34:35.551Z,8.07
2022-11-18T06:37:18.893Z,8.68
2022-11-18T06:39:45.562Z,8.95
2022-11-18T06:42:33.076Z,12.00
2022-11-18T06:45:00.327Z,10.70
2022-11-18T06:47:27.091Z,9.25
2022-11-18T06:49:53.919Z,8.35
2022-11-18T06:52:22.367Z,9.18
2022-11-18T06:54:49.242Z,8.88
2022-11-18T06:57:16.335Z,11.25
2022-11-18T06:59:43.385Z,9.45
2022-11-18T07:02:10.083Z,9.27
2022-11-18T07:04:39.837Z,9.80
2022-11-18T07:07:09.743Z,7.90
2022-11-18T07:09:37.651Z,9.07
2022-11-18T07:12:08.054Z,9.48
2022-11-18T07:14:34.807Z,9.88
2022-11-18T07:17:01.637Z,11.43
2022-11-18T07:19:34.373Z,10.10
2022-11-18T07:22:02.411Z,8.93
2022-11-18T07:24:29.062Z,9.90
2022-11-18T07:26:55.797Z,11.02
2022-11-18T07:29:22.497Z,9.65
2022-11-18T07:31:49.157Z,10.82
2022-11-18T07:34:15.917Z,10.63
2022-11-18T07:36:43.342Z,10.73
2022-11-18T07:39:10.124Z,10.77
2022-11-18T07:41:36.789Z,9.88
2022-11-18T07:44:04.745Z,11.98
2022-11-18T07:46:33.244Z,10.40
2022-11-18T07:49:02.535Z,12.93
2022-11-18T07:51:32.515Z,10.95
2022-11-18T07:53:59.182Z,13.75
2022-11-18T07:56:25.890Z,13.10
2022-11-18T07:58:56.379Z,13.10
2022-11-18T08:01:25.258Z,11.27
2022-11-18T08:03:52.133Z,12.50
2022-11-18T08:06:19.746Z,13.27
2022-11-18T08:08:47.820Z,16.33
2022-11-18T08:11:21.859Z,12.25
2022-11-18T08:13:49.252Z,13.70
2022-11-18T08:16:21.068Z,14.57
2022-11-18T08:18:48.233Z,13.52
2022-11-18T08:21:15.972Z,15.63
2022-11-18T08:23:42.967Z,12.82
2022-11-18T08:26:19.412Z,13.57
2022-11-18T08:28:46.591Z,15.73
2022-11-18T08:31:16.434Z,13.25
2022-11-18T08:33:43.369Z,14.85
2022-11-18T08:36:19.302Z,14.27
2022-11-18T08:38:45.995Z,13.88
2022-11-18T08:41:25.943Z,12.32
2022-11-18T08:43:52.580Z,12.25
2022-11-18T08:46:20.107Z,14.38
2022-11-18T08:48:46.839Z,13.65
2022-11-18T08:51:13.778Z,13.85
2022-11-18T08:53:40.595Z,11.35
2022-11-18T08:56:08.194Z,13.35
2022-11-18T08:58:34.962Z,14.85
2022-11-18T09:01:06.609Z,14.70
2022-11-18T09:03:33.450Z,16.30
2022-11-18T09:06:10.774Z,16.10
2022-11-18T09:08:38.029Z,14.85
2022-11-18T09:11:22.576Z,14.07
2022-11-18T09:16:42.715Z,14.98
2022-11-18T09:19:39.633Z,12.88
2022-11-18T09:21:56.086Z,12.95
2022-11-18T09:24:22.763Z,12.32
2022-11-18T09:26:50.071Z,12.75
2022-11-18T09:29:16.787Z,13.88
2022-11-18T09:31:43.459Z,13.63
2022-11-18T09:34:10.548Z,16.05
2022-11-18T09:36:37.600Z,14.15
2022-11-18T09:39:04.429Z,13.93
2022-11-18T09:41:48.624Z,12.73
2022-11-18T09:44:47.637Z,14.32
2022-11-18T09:47:17.558Z,14.00
2022-11-18T09:49:46.128Z,15.52
2022-11-18T09:52:12.758Z,11.90
2022-11-18T09:54:40.312Z,14.25
2022-11-18T09:57:16.301Z,15.07
2022-11-18T09:59:44.247Z,15.80
2022-11-18T10:02:13.663Z,15.40
2022-11-18T10:04:40.603Z,12.77
2022-11-18T10:07:19.628Z,14.40
2022-11-18T10:09:51.473Z,12.93
2022-11-18T10:12:37.640Z,14.45
2022-11-18T10:15:19.426Z,13.38
2022-11-18T10:18:38.284Z,15.63
2022-11-18T10:21:17.874Z,13.10
2022-11-18T10:23:56.149Z,14.10
2022-11-18T10:26:38.270Z,13.77
2022-11-18T10:29:09.982Z,13.95
2022-11-18T10:31:52.529Z,13.23
2022-11-18T10:34:20.597Z,11.57
2022-11-18T10:37:07.773Z,13.57
2022-11-18T10:39:49.465Z,14.00
2022-11-18T10:42:40.222Z,11.82
2022-11-18T10:45:31.268Z,14.38
2022-11-18T10:47:57.933Z,13.85
2022-11-18T10:50:38.539Z,12.07
2022-11-18T10:53:25.972Z,13.98
2022-11-18T10:56:04.071Z,12.45
2022-11-18T10:58:32.908Z,13.10
2022-11-18T11:01:14.603Z,12.23
2022-11-18T11:03:43.496Z,13.77
2022-11-18T11:06:39.532Z,12.68
2022-11-18T11:09:10.607Z,10.88
2022-11-18T11:11:55.702Z,12.25
2022-11-18T11:14:34.701Z,13.38
2022-11-18T11:17:07.579Z,11.05
2022-11-18T11:19:59.195Z,9.48
2022-11-18T11:22:25.917Z,13.23
2022-11-18T11:24:52.657Z,12.43
2022-11-18T11:30:24.582Z,11.68
2022-11-18T11:33:00.988Z,12.25
2022-11-18T11:35:34.352Z,11.90
2022-11-18T11:38:19.722Z,10.75
2022-11-18T11:41:00.529Z,11.57
2022-11-18T11:43:48.792Z,12.95
2022-11-18T11:46:24.026Z,10.45
2022-11-18T11:48:57.799Z,10.68
2022-11-18T11:51:44.672Z,12.65
2022-11-18T11:54:47.913Z,10.20
2022-11-18T11:57:34.054Z,10.48
2022-11-18T12:00:09.505Z,10.80
2022-11-18T12:02:54.215Z,11.52
2022-11-18T12:05:47.294Z,11.60
2022-11-18T12:08:20.110Z,10.80
2022-11-18T12:11:34.946Z,10.52
2022-11-18T12:14:21.354Z,10.70
2022-11-18T12:17:25.241Z,12.93
2022-11-18T12:19:51.974Z,11.60
2022-11-18T12:22:18.716Z,10.40
2022-11-18T12:24:45.385Z,13.18
2022-11-18T12:27:24.214Z,11.70
2022-11-18T12:29:50.903Z,11.00
2022-11-18T12:32:47.704Z,11.10
2022-11-18T12:35:14.270Z,13.88
2022-11-18T12:37:41.074Z,12.70
2022-11-18T12:40:09.545Z,10.95
2022-11-18T12:42:57.818Z,12.23
2022-11-18T12:45:43.522Z,9.90
2022-11-18T12:48:33.845Z,10.65
2022-11-18T12:51:26.166Z,10.65
2022-11-18T12:53:53.269Z,12.23
2022-11-18T12:56:37.159Z,10.77
2022-11-18T12:59:03.871Z,11.48
2022-11-18T13:01:35.318Z,14.25
2022-11-18T13:04:14.776Z,12.23
2022-11-18T13:06:42.469Z,12.30
2022-11-18T13:09:24.902Z,12.63
2022-11-18T13:11:59.147Z,10.10
2022-11-18T13:15:05.103Z,9.60
2022-11-18T13:17:51.282Z,10.40
2022-11-18T13:20:36.140Z,10.95
2022-11-18T13:23:22.859Z,9.43
2022-11-18T13:25:50.889Z,11.85
2022-11-18T13:28:42.435Z,12.77
2022-11-18T13:31:21.296Z,12.23
2022-11-18T13:33:48.228Z,12.23
2022-11-18T13:36:26.157Z,13.13
2022-11-18T13:39:03.410Z,12.20
2022-11-18T13:41:35.625Z,15.18
2022-11-18T13:44:15.613Z,12.85
2022-11-18T13:46:43.553Z,11.57
2022-11-18T13:49:17.553Z,12.23
2022-11-18T13:51:44.814Z,11.45
2022-11-18T13:54:17.485Z,10.63
2022-11-18T13:56:44.174Z,11.95
2022-11-18T13:59:20.937Z,11.13
2022-11-18T14:01:59.035Z,11.02
2022-11-18T14:04:28.780Z,13.15
2022-11-18T14:07:16.071Z,10.98
2022-11-18T14:10:15.561Z,11.65
2022-11-18T14:12:42.810Z,11.55
2022-11-18T14:15:13.955Z,13.05
2022-11-18T14:17:57.350Z,11.43
2022-11-18T14:20:26.062Z,11.98
2022-11-18T14:23:16.783Z,10.93
2022-11-18T14:25:45.469Z,10.85
2022-11-18T14:28:18.030Z,11.93
2022-11-18T14:30:59.029Z,10.80
2022-11-18T14:33:29.947Z,10.57
2022-11-18T14:35:59.719Z,10.90
2022-11-18T14:38:52.003Z,11.57
2022-11-18T14:41:45.143Z,10.40
2022-11-18T14:44:13.703Z,9.68
2022-11-18T14:46:42.765Z,9.82
2022-11-18T14:49:22.334Z,10.70
2022-11-18T14:51:50.466Z,11.68
2022-11-18T14:54:25.452Z,10.82
2022-11-18T14:56:55.586Z,12.25
2022-11-18T14:59:22.310Z,12.15
2022-11-18T15:01:49.215Z,11.80
2022-11-18T15:04:17.835Z,10.73
2022-11-18T15:06:44.794Z,10.15
2022-11-18T15:09:12.149Z,10.00
2022-11-18T15:11:39.059Z,12.20
2022-11-18T15:14:06.017Z,12.25
2022-11-18T15:16:34.130Z,11.25
2022-11-18T15:19:03.907Z,11.32
2022-11-18T15:21:31.192Z,10.77
2022-11-18T15:23:57.966Z,11.52
2022-11-18T15:26:30.586Z,13.02
2022-11-18T15:28:58.157Z,10.95
2022-11-18T15:31:25.495Z,10.77
2022-11-18T15:33:52.867Z,12.00
2022-11-18T15:36:21.984Z,11.43
2022-11-18T15:38:49.093Z,14.23
2022-11-18T15:41:21.526Z,13.40
2022-11-18T15:43:49.691Z,12.98
2022-11-18T15:46:19.477Z,12.93
2022-11-18T15:48:46.943Z,10.73
2022-11-18T15:51:14.820Z,14.50
2022-11-18T15:53:41.475Z,12.05
2022-11-18T15:56:23.331Z,12.77
2022-11-18T15:58:59.801Z,10.27
2022-11-18T16:01:32.087Z,11.43
2022-11-18T16:03:59.118Z,11.47
2022-11-18T16:06:26.649Z,12.25
2022-11-18T16:08:59.161Z,12.35
2022-11-18T16:11:44.715Z,11.70
2022-11-18T16:14:13.166Z,14.07
2022-11-18T16:16:41.794Z,10.95
2022-11-18T16:19:11.603Z,11.02
2022-11-18T16:21:41.019Z,11.02
2022-11-18T16:24:10.989Z,11.90
2022-11-18T16:26:37.940Z,11.68
2022-11-18T16:29:06.524Z,19.38
2022-11-18T16:31:41.074Z,17.10
2022-11-18T16:34:15.672Z,80.80
2022-11-18T16:36:44.779Z,28.95
2022-11-18T16:39:15.767Z,85.53
2022-11-18T16:41:43.589Z,38.63
2022-11-18T16:44:15.326Z,61.67
2022-11-18T16:46:47.163Z,20.92
2022-11-18T16:49:15.979Z,20.15
2022-11-18T16:51:44.761Z,26.65
2022-11-18T16:54:23.386Z,17.30
2022-11-18T16:56:52.534Z,18.52
2022-11-18T16:59:24.213Z,16.20
2022-11-18T17:01:52.805Z,14.65
2022-11-18T17:04:20.456Z,16.27
2022-11-18T17:06:47.682Z,16.15
2022-11-18T17:09:17.409Z,13.15
2022-11-18T17:11:44.338Z,14.13
2022-11-18T17:14:11.677Z,14.85
2022-11-18T17:16:38.540Z,12.93
2022-11-18T17:19:11.364Z,14.30
2022-11-18T17:21:38.687Z,17.17
2022-11-18T17:24:06.327Z,12.73
2022-11-18T17:26:32.947Z,13.85
2022-11-18T17:28:59.893Z,12.75
2022-11-18T17:31:26.880Z,12.00
2022-11-18T17:33:55.134Z,10.45
2022-11-18T17:36:26.447Z,12.27
2022-11-18T17:38:55.652Z,14.88
2022-11-18T17:41:43.496Z,11.60
2022-11-18T17:44:12.276Z,10.93
2022-11-18T17:46:39.764Z,10.80
2022-11-18T17:49:18.269Z,10.43
2022-11-18T17:51:48.746Z,9.65
2022-11-18T17:54:16.004Z,8.57
2022-11-18T17:56:43.224Z,8.40
2022-11-18T17:59:09.945Z,9.95
2022-11-18T18:01:36.842Z,12.48
2022-11-18T18:04:04.012Z,17.80
2022-11-18T18:06:30.696Z,39.72
2022-11-18T18:08:58.328Z,42.92
2022-11-18T18:11:26.220Z,25.10
2022-11-18T18:14:11.936Z,25.45
2022-11-18T18:16:50.223Z,23.60
2022-11-18T18:19:19.708Z,18.25
2022-11-18T18:21:47.544Z,13.93
2022-11-18T18:24:17.760Z,14.40
2022-11-18T18:26:44.654Z,18.38
2022-11-18T18:29:12.189Z,15.45
2022-11-18T18:31:39.258Z,18.38
2022-11-18T18:34:06.120Z,14.60
2022-11-18T18:36:33.023Z,15.45
2022-11-18T18:39:00.999Z,17.95
2022-11-18T18:41:27.776Z,18.63
2022-11-18T18:43:54.493Z,13.38
2022-11-18T18:46:32.230Z,13.77
2022-11-18T18:49:10.600Z,10.88
2022-11-18T18:51:42.440Z,12.85
2022-11-18T18:54:17.766Z,16.98
2022-11-18T18:56:45.282Z,11.15
2022-11-18T18:59:12.202Z,12.27
2022-11-18T19:01:39.312Z,12.18
2022-11-18T19:04:07.699Z,15.45
2022-11-18T19:09:23.403Z,14.75
2022-11-18T19:12:09.007Z,12.30
2022-11-18T19:14:35.800Z,11.70
2022-11-18T19:17:09.562Z,12.40
2022-11-18T19:19:57.402Z,12.10
2022-11-18T19:22:24.558Z,9.35
2022-11-18T19:24:51.518Z,11.05
2022-11-18T19:27:19.492Z,11.25
2022-11-18T19:29:46.436Z,11.88
2022-11-18T19:32:13.315Z,11.63
2022-11-18T19:34:40.036Z,12.23
2022-11-18T19:37:07.060Z,11.40
2022-11-18T19:39:34.662Z,13.40
2022-11-18T19:42:03.905Z,12.20
2022-11-18T19:44:30.766Z,10.75
2022-11-18T19:46:57.474Z,11.40
2022-11-18T19:49:24.388Z,13.68
2022-11-18T19:51:51.098Z,10.55
2022-11-18T19:54:17.811Z,10.02
2022-11-18T19:56:44.520Z,10.38
2022-11-18T19:59:12.785Z,11.55
2022-11-18T20:01:40.164Z,12.65
2022-11-18T20:04:07.296Z,12.32
2022-11-18T20:06:36.165Z,12.00
2022-11-18T20:09:06.231Z,12.63
2022-11-18T20:11:32.969Z,13.05
2022-11-18T20:13:59.680Z,12.65
2022-11-18T20:16:26.552Z,11.85
2022-11-18T20:19:05.011Z,11.40
2022-11-18T20:21:34.868Z,13.68
2022-11-18T20:24:04.057Z,11.00
2022-11-18T20:26:36.348Z,14.30
2022-11-18T20:29:03.345Z,10.77
2022-11-18T20:31:32.926Z,11.35
2022-11-18T20:34:00.368Z,13.85
2022-11-18T20:36:31.363Z,11.52
2022-11-18T20:39:01.186Z,10.75
2022-11-18T20:41:32.195Z,12.30
2022-11-18T20:43:59.881Z,11.88
2022-11-18T20:46:27.144Z,11.65
2022-11-18T20:48:53.942Z,12.32
2022-11-18T20:51:26.022Z,10.75
2022-11-18T20:53:54.184Z,11.60
2022-11-18T20:56:23.419Z,11.45
2022-11-18T20:58:51.016Z,10.60
2022-11-18T21:01:18.721Z,10.85
2022-11-18T21:03:53.765Z,10.50
2022-11-18T21:06:22.395Z,10.77
2022-11-18T21:08:49.919Z,9.77
2022-11-18T21:11:17.307Z,14.38
2022-11-18T21:14:03.291Z,11.80
2022-11-18T21:16:30.116Z,10.85
2022-11-18T21:18:56.820Z,12.02
2022-11-18T21:21:42.285Z,12.95
2022-11-18T21:24:09.132Z,11.70
2022-11-18T21:26:36.974Z,10.85
2022-11-18T21:29:06.213Z,10.18
2022-11-18T21:31:33.161Z,10.18
2022-11-18T21:33:59.846Z,10.88
2022-11-18T21:36:28.408Z,9.15
2022-11-18T21:38:57.470Z,11.80
2022-11-18T21:41:24.422Z,8.30
2022-11-18T21:44:04.921Z,9.82
2022-11-18T21:46:34.521Z,11.13
2022-11-18T21:49:02.058Z,10.95
2022-11-18T21:51:31.465Z,9.52
2022-11-18T21:54:01.842Z,10.30
2022-11-18T21:56:33.294Z,10.63
2022-11-18T21:59:02.144Z,12.70
2022-11-18T22:01:31.527Z,11.57
2022-11-18T22:04:01.326Z,11.43
2022-11-18T22:06:30.343Z,9.70
2022-11-18T22:08:57.503Z,10.85
2022-11-18T22:11:25.731Z,11.38
2022-11-18T22:13:53.337Z,8.82
2022-11-18T22:16:22.644Z,9.93
2022-11-18T22:18:56.530Z,11.27
2022-11-18T22:21:26.737Z,8.27
2022-11-18T22:23:58.095Z,10.90
2022-11-18T22:26:24.779Z,10.05
2022-11-18T22:28:57.052Z,9.48
2022-11-18T22:31:26.075Z,8.13
2022-11-18T22:33:53.287Z,8.55
2022-11-18T22:36:22.291Z,9.10
2022-11-18T22:38:49.392Z,8.23
2022-11-18T22:41:35.627Z,8.40
2022-11-18T22:44:07.285Z,9.05
2022-11-18T22:46:35.110Z,8.55
2022-11-18T22:49:02.119Z,8.75
2022-11-18T22:51:28.935Z,8.30
2022-11-18T22:54:15.876Z,8.25
2022-11-18T22:56:42.714Z,9.05
2022-11-18T22:59:12.210Z,8.40
2022-11-18T23:01:39.317Z,11.35
2022-11-18T23:04:06.213Z,9.55
2022-11-18T23:06:33.273Z,9.93
2022-11-18T23:08:59.995Z,9.32
2022-11-18T23:12:02.582Z,8.70
2022-11-18T23:14:29.247Z,10.00
2022-11-18T23:16:56.128Z,7.78
2022-11-18T23:19:23.107Z,10.25
2022-11-18T23:21:50.355Z,9.88
2022-11-18T23:24:19.109Z,9.77
2022-11-18T23:26:46.468Z,8.18
2022-11-18T23:29:14.432Z,10.32
2022-11-18T23:31:43.749Z,10.38
2022-11-18T23:34:12.471Z,9.45
2022-11-18T23:36:39.955Z,10.82
2022-11-18T23:39:07.126Z,9.32
2022-11-18T23:41:33.774Z,8.80
2022-11-18T23:44:00.673Z,8.95
2022-11-18T23:46:27.834Z,9.35
2022-11-18T23:48:55.010Z,8.63
2022-11-18T23:51:23.588Z,8.55
2022-11-18T23:53:57.567Z,9.82
2022-11-18T23:56:26.606Z,8.50
2022-11-18T23:58:56.581Z,8.98
